createdAt,value
2019-02-21T00:01:37.143Z,21.73
2019-02-21T00:04:22.493Z,22.17
2019-02-21T00:07:06.541Z,19.07
2019-02-21T00:09:50.297Z,20.43
2019-02-21T00:12:35.294Z,18.17
2019-02-21T00:15:18.010Z,17.57
2019-02-21T00:18:00.629Z,18.02
2019-02-21T00:20:45.981Z,20.17
2019-02-21T00:23:30.925Z,15.43
2019-02-21T00:26:16.359Z,24.23
2019-02-21T00:28:59.080Z,18.30
2019-02-21T00:31:44.204Z,17.17
2019-02-21T00:34:28.692Z,20.80
2019-02-21T00:37:11.278Z,21.77
2019-02-21T00:39:55.200Z,24.23
2019-02-21T00:42:40.523Z,28.30
2019-02-21T00:45:23.652Z,25.67
2019-02-21T00:48:06.897Z,26.00
2019-02-21T00:50:50.375Z,20.63
2019-02-21T00:53:33.270Z,18.73
2019-02-21T00:56:16.288Z,20.47
2019-02-21T00:59:01.332Z,18.77
2019-02-21T01:01:44.875Z,19.13
2019-02-21T01:04:28.349Z,18.43
2019-02-21T01:07:11.012Z,20.17
2019-02-21T01:09:54.517Z,18.67
2019-02-21T01:12:38.633Z,14.93
2019-02-21T01:15:21.785Z,12.90
2019-02-21T01:18:05.531Z,19.37
2019-02-21T01:20:48.760Z,15.53
2019-02-21T01:23:31.971Z,17.33
2019-02-21T01:26:14.960Z,15.83
2019-02-21T01:28:58.139Z,16.97
2019-02-21T01:31:43.716Z,15.17
2019-02-21T01:34:28.337Z,19.53
2019-02-21T01:37:13.882Z,17.03
2019-02-21T01:39:56.629Z,15.27
2019-02-21T01:42:39.594Z,18.63
2019-02-21T01:45:23.853Z,22.57
2019-02-21T01:48:08.664Z,20.07
2019-02-21T01:50:52.549Z,15.63
2019-02-21T01:53:35.251Z,16.90
2019-02-21T01:56:18.239Z,19.13
2019-02-21T01:59:01.295Z,17.80
2019-02-21T02:01:44.004Z,16.43
2019-02-21T02:04:28.786Z,16.27
2019-02-21T02:07:11.957Z,17.83
2019-02-21T02:09:57.396Z,15.07
2019-02-21T02:12:42.315Z,14.23
2019-02-21T02:15:27.125Z,16.00
2019-02-21T02:18:12.034Z,15.87
2019-02-21T02:20:55.160Z,14.67
2019-02-21T02:23:37.842Z,17.87
2019-02-21T02:26:20.426Z,15.13
2019-02-21T02:29:03.375Z,13.30
2019-02-21T02:31:48.066Z,14.00
2019-02-21T02:34:31.081Z,18.60
2019-02-21T02:37:13.829Z,18.00
2019-02-21T02:39:57.144Z,16.53
2019-02-21T02:42:40.126Z,15.33
2019-02-21T02:45:22.863Z,16.53
2019-02-21T02:48:06.384Z,16.30
2019-02-21T02:50:49.260Z,17.50
2019-02-21T02:53:31.731Z,16.40
2019-02-21T02:56:14.519Z,17.33
2019-02-21T02:58:57.893Z,19.40
2019-02-21T03:01:42.213Z,17.77
2019-02-21T03:04:25.074Z,16.87
2019-02-21T03:07:08.950Z,18.20
2019-02-21T03:09:55.632Z,16.73
2019-02-21T03:12:38.360Z,14.77
2019-02-21T03:15:23.784Z,18.23
2019-02-21T03:18:07.216Z,16.53
2019-02-21T03:20:50.180Z,18.67
2019-02-21T03:23:33.083Z,18.03
2019-02-21T03:26:15.862Z,21.10
2019-02-21T03:28:59.318Z,18.10
2019-02-21T03:31:54.552Z,20.03
2019-02-21T03:34:27.649Z,16.97
2019-02-21T03:37:12.854Z,17.23
2019-02-21T03:39:57.924Z,19.93
2019-02-21T03:42:44.791Z,20.17
2019-02-21T03:45:28.337Z,21.17
2019-02-21T03:48:11.362Z,21.90
2019-02-21T03:50:54.353Z,18.30
2019-02-21T03:53:40.976Z,17.77
2019-02-21T03:56:23.945Z,21.77
2019-02-21T03:59:06.582Z,26.63
2019-02-21T04:01:50.685Z,21.93
2019-02-21T04:04:33.547Z,17.37
2019-02-21T04:07:16.972Z,21.07
2019-02-21T04:10:02.003Z,24.27
2019-02-21T04:12:45.068Z,23.17
2019-02-21T04:15:28.209Z,21.83
2019-02-21T04:18:10.789Z,24.83
2019-02-21T04:20:54.186Z,26.67
2019-02-21T04:26:20.098Z,21.97
2019-02-21T04:29:04.981Z,21.95
2019-02-21T04:31:50.187Z,19.20
2019-02-21T04:34:35.679Z,21.23
2019-02-21T04:37:18.352Z,19.03
2019-02-21T04:40:01.024Z,21.27
2019-02-21T04:42:44.125Z,20.23
2019-02-21T04:45:26.818Z,17.70
2019-02-21T04:48:10.270Z,18.83
2019-02-21T04:50:54.463Z,23.60
2019-02-21T04:53:37.999Z,21.40
2019-02-21T04:56:22.539Z,19.77
2019-02-21T04:59:06.701Z,22.60
2019-02-21T05:01:51.834Z,26.33
2019-02-21T05:04:34.888Z,24.73
2019-02-21T05:07:17.981Z,24.30
2019-02-21T05:10:00.966Z,27.67
2019-02-21T05:12:44.741Z,23.50
2019-02-21T05:15:27.870Z,26.87
2019-02-21T05:18:10.537Z,26.23
2019-02-21T05:20:53.518Z,38.23
2019-02-21T05:23:36.883Z,28.03
2019-02-21T05:29:04.980Z,31.83
2019-02-21T05:32:11.505Z,28.93
2019-02-21T05:35:16.186Z,27.37
2019-02-21T05:38:07.741Z,30.57
2019-02-21T05:41:38.431Z,31.40
2019-02-21T05:44:40.197Z,31.20
2019-02-21T05:47:23.598Z,34.53
2019-02-21T05:50:31.144Z,36.83
2019-02-21T05:53:35.072Z,39.83
2019-02-21T05:56:31.958Z,36.07
2019-02-21T05:59:37.410Z,35.80
2019-02-21T06:02:21.591Z,36.40
2019-02-21T06:05:25.067Z,36.93
2019-02-21T06:08:13.937Z,33.00
2019-02-21T06:11:03.675Z,38.87
2019-02-21T06:14:28.721Z,36.93
2019-02-21T06:17:34.179Z,38.90
2019-02-21T06:20:27.007Z,34.10
2019-02-21T06:23:30.639Z,41.93
2019-02-21T06:26:35.495Z,34.57
2019-02-21T06:29:40.459Z,35.77
2019-02-21T06:32:43.461Z,36.90
2019-02-21T06:35:26.883Z,34.17
2019-02-21T06:38:10.231Z,33.83
2019-02-21T06:40:53.220Z,35.70
2019-02-21T06:43:36.574Z,30.73
2019-02-21T06:46:19.474Z,37.00
2019-02-21T06:49:02.541Z,35.47
2019-02-21T06:51:45.940Z,38.23
2019-02-21T06:54:31.960Z,38.27
2019-02-21T06:57:14.950Z,42.00
2019-02-21T06:59:58.283Z,37.47
2019-02-21T07:02:42.028Z,43.57
2019-02-21T07:05:24.826Z,45.37
2019-02-21T07:08:09.448Z,48.53
2019-02-21T07:10:52.090Z,46.60
2019-02-21T07:13:35.007Z,47.57
2019-02-21T07:16:19.323Z,38.95
2019-02-21T07:19:02.380Z,43.23
2019-02-21T07:21:45.011Z,41.17
2019-02-21T07:24:28.345Z,46.30
2019-02-21T07:27:11.812Z,40.33
2019-02-21T07:29:54.675Z,45.50
2019-02-21T07:32:37.393Z,43.83
2019-02-21T07:35:20.804Z,42.63
2019-02-21T07:38:03.720Z,37.60
2019-02-21T07:40:49.278Z,42.87
2019-02-21T07:43:32.580Z,44.00
2019-02-21T07:46:16.045Z,47.00
2019-02-21T07:48:59.488Z,46.70
2019-02-21T07:51:42.545Z,46.30
2019-02-21T07:54:25.528Z,52.03
2019-02-21T07:57:09.035Z,37.53
2019-02-21T07:59:51.822Z,45.13
2019-02-21T08:02:34.601Z,49.73
2019-02-21T08:05:17.573Z,43.10
2019-02-21T08:08:00.303Z,45.90
2019-02-21T08:10:43.350Z,46.43
2019-02-21T08:13:26.035Z,51.27
2019-02-21T08:16:09.537Z,45.17
2019-02-21T08:18:52.984Z,51.43
2019-02-21T08:21:36.935Z,47.50
2019-02-21T08:24:22.149Z,49.83
2019-02-21T08:27:05.587Z,57.20
2019-02-21T08:29:48.849Z,43.30
2019-02-21T08:32:36.072Z,45.80
2019-02-21T08:35:22.880Z,55.60
2019-02-21T08:38:06.118Z,43.40
2019-02-21T08:40:49.794Z,40.33
2019-02-21T08:43:33.169Z,47.20
2019-02-21T08:46:18.223Z,49.83
2019-02-21T08:49:00.222Z,37.43
2019-02-21T08:51:43.048Z,43.33
2019-02-21T08:54:27.376Z,42.97
2019-02-21T08:57:10.275Z,45.87
2019-02-21T08:59:53.141Z,57.20
2019-02-21T09:02:37.479Z,38.57
2019-02-21T09:05:22.700Z,39.33
2019-02-21T09:08:05.842Z,40.52
2019-02-21T09:10:50.798Z,37.28
2019-02-21T09:13:33.353Z,33.38
2019-02-21T09:16:18.015Z,35.17
2019-02-21T09:19:00.936Z,41.53
2019-02-21T09:21:43.803Z,32.93
2019-02-21T09:24:38.235Z,31.68
2019-02-21T09:27:12.802Z,27.52
2019-02-21T09:29:55.693Z,21.80
2019-02-21T09:32:42.058Z,26.15
2019-02-21T09:35:26.998Z,24.60
2019-02-21T09:38:10.648Z,25.60
2019-02-21T09:40:54.947Z,22.75
2019-02-21T09:43:37.925Z,19.50
2019-02-21T09:46:20.735Z,23.95
2019-02-21T09:49:06.447Z,25.02
2019-02-21T09:51:49.201Z,19.42
2019-02-21T09:54:31.926Z,24.07
2019-02-21T09:57:16.310Z,19.32
2019-02-21T10:00:00.829Z,21.48
2019-02-21T10:02:44.270Z,23.05
2019-02-21T10:05:29.451Z,18.45
2019-02-21T10:08:14.722Z,21.20
2019-02-21T10:10:57.726Z,20.08
2019-02-21T10:13:41.801Z,16.90
2019-02-21T10:16:26.452Z,19.65
2019-02-21T10:19:09.572Z,19.95
2019-02-21T10:21:52.613Z,19.48
2019-02-21T10:24:35.571Z,18.85
2019-02-21T10:27:19.095Z,15.85
2019-02-21T10:30:02.261Z,21.73
2019-02-21T10:32:47.842Z,23.18
2019-02-21T10:35:30.820Z,24.52
2019-02-21T10:38:14.650Z,21.85
2019-02-21T10:40:58.284Z,19.67
2019-02-21T10:43:41.529Z,20.52
2019-02-21T10:46:24.203Z,19.20
2019-02-21T10:49:07.440Z,18.62
2019-02-21T10:51:50.057Z,20.05
2019-02-21T10:54:33.820Z,19.50
2019-02-21T10:57:17.124Z,19.92
2019-02-21T11:00:02.610Z,31.02
2019-02-21T11:02:48.060Z,21.30
2019-02-21T11:05:30.903Z,20.17
2019-02-21T11:08:13.693Z,23.70
2019-02-21T11:10:57.990Z,24.55
2019-02-21T11:16:30.120Z,23.35
2019-02-21T11:19:13.412Z,25.37
2019-02-21T11:21:56.017Z,37.42
2019-02-21T11:24:40.785Z,25.72
2019-02-21T11:27:23.653Z,20.00
2019-02-21T11:30:06.492Z,25.02
2019-02-21T11:32:50.737Z,21.70
2019-02-21T11:35:35.999Z,22.40
2019-02-21T11:38:18.742Z,22.45
2019-02-21T11:41:01.605Z,24.43
2019-02-21T11:43:47.025Z,24.80
2019-02-21T11:46:31.715Z,23.98
2019-02-21T11:49:15.998Z,24.15
2019-02-21T11:52:09.841Z,20.15
2019-02-21T11:54:48.040Z,19.95
2019-02-21T11:57:30.650Z,22.95
2019-02-21T12:00:14.182Z,18.67
2019-02-21T12:02:57.472Z,22.40
2019-02-21T12:05:42.573Z,21.73
2019-02-21T12:08:29.261Z,21.17
2019-02-21T12:11:11.754Z,23.30
2019-02-21T12:13:57.039Z,19.30
2019-02-21T12:16:41.917Z,22.70
2019-02-21T12:19:24.846Z,20.85
2019-02-21T12:22:08.948Z,26.55
2019-02-21T12:24:52.331Z,25.43
2019-02-21T12:27:35.765Z,18.90
2019-02-21T12:30:19.322Z,19.90
2019-02-21T12:33:02.898Z,21.05
2019-02-21T12:35:45.406Z,22.25
2019-02-21T12:41:36.681Z,23.52
2019-02-21T12:44:21.751Z,27.10
2019-02-21T12:47:04.409Z,25.88
2019-02-21T12:49:46.964Z,26.95
2019-02-21T12:52:30.949Z,24.72
2019-02-21T12:55:14.200Z,27.42
2019-02-21T12:57:58.564Z,20.65
2019-02-21T13:03:26.282Z,29.07
2019-02-21T13:06:13.017Z,23.18
2019-02-21T13:08:56.107Z,21.60
2019-02-21T13:11:39.686Z,24.23
2019-02-21T13:14:23.673Z,25.52
2019-02-21T13:17:06.826Z,22.60
2019-02-21T13:19:50.064Z,17.60
2019-02-21T13:22:34.849Z,21.70
2019-02-21T13:25:17.852Z,15.68
2019-02-21T13:28:00.467Z,22.27
2019-02-21T13:30:44.060Z,18.90
2019-02-21T13:33:27.175Z,16.00
2019-02-21T13:36:10.357Z,20.23
2019-02-21T13:38:53.234Z,23.87
2019-02-21T13:41:36.380Z,20.52
2019-02-21T13:44:20.050Z,23.32
2019-02-21T13:47:03.528Z,17.62
2019-02-21T13:49:46.302Z,15.43
2019-02-21T13:52:30.326Z,14.85
2019-02-21T13:55:13.205Z,15.68
2019-02-21T13:57:57.186Z,15.95
2019-02-21T14:00:42.194Z,21.97
2019-02-21T14:03:27.369Z,15.13
2019-02-21T14:06:12.120Z,18.23
2019-02-21T14:08:55.308Z,19.10
2019-02-21T14:11:38.717Z,19.20
2019-02-21T14:14:23.567Z,16.37
2019-02-21T14:17:06.663Z,26.57
2019-02-21T14:19:49.637Z,23.50
2019-02-21T14:22:32.215Z,24.53
2019-02-21T14:25:17.361Z,22.67
2019-02-21T14:28:00.728Z,20.33
2019-02-21T14:30:44.190Z,22.73
2019-02-21T14:33:27.981Z,24.27
2019-02-21T14:36:16.724Z,22.87
2019-02-21T14:38:57.301Z,26.37
2019-02-21T14:41:40.478Z,30.10
2019-02-21T14:44:24.397Z,24.67
2019-02-21T14:47:08.065Z,23.23
2019-02-21T14:49:51.781Z,21.33
2019-02-21T14:52:36.976Z,23.90
2019-02-21T14:55:22.348Z,23.37
2019-02-21T14:58:05.529Z,28.77
2019-02-21T15:00:48.166Z,26.83
2019-02-21T15:03:32.825Z,23.92
2019-02-21T15:06:26.447Z,27.00
2019-02-21T15:09:00.679Z,21.83
2019-02-21T15:11:46.123Z,30.80
2019-02-21T15:14:28.981Z,22.50
2019-02-21T15:17:11.835Z,23.47
2019-02-21T15:19:54.544Z,26.47
2019-02-21T15:22:38.874Z,25.10
2019-02-21T15:25:22.168Z,22.60
2019-02-21T15:28:05.702Z,27.03
2019-02-21T15:30:50.651Z,24.45
2019-02-21T15:33:37.292Z,19.67
2019-02-21T15:36:20.820Z,18.50
2019-02-21T15:39:05.068Z,23.40
2019-02-21T15:41:50.290Z,27.27
2019-02-21T15:44:33.660Z,21.20
2019-02-21T15:47:17.236Z,21.73
2019-02-21T15:50:00.887Z,21.60
2019-02-21T15:52:43.636Z,21.17
2019-02-21T15:55:27.095Z,22.40
2019-02-21T15:58:10.570Z,22.90
2019-02-21T16:00:54.587Z,23.90
2019-02-21T16:03:37.228Z,18.60
2019-02-21T16:06:20.301Z,25.47
2019-02-21T16:09:02.901Z,27.80
2019-02-21T16:11:47.937Z,27.67
2019-02-21T16:14:32.662Z,19.30
2019-02-21T16:17:15.423Z,19.07
2019-02-21T16:20:00.395Z,24.30
2019-02-21T16:22:45.966Z,20.63
2019-02-21T16:25:31.154Z,21.57
2019-02-21T16:28:13.777Z,18.97
2019-02-21T16:30:57.142Z,23.92
2019-02-21T16:33:42.566Z,23.73
2019-02-21T16:36:28.034Z,26.00
2019-02-21T16:39:11.421Z,24.93
2019-02-21T16:41:58.198Z,23.73
2019-02-21T16:44:41.733Z,22.00
2019-02-21T16:47:25.317Z,30.80
2019-02-21T16:50:08.872Z,27.97
2019-02-21T16:52:52.491Z,25.73
2019-02-21T16:55:35.477Z,22.43
2019-02-21T16:58:18.638Z,23.07
2019-02-21T17:01:01.816Z,25.33
2019-02-21T17:03:45.507Z,26.20
2019-02-21T17:06:28.483Z,31.87
2019-02-21T17:09:13.117Z,25.07
2019-02-21T17:11:55.973Z,27.03
2019-02-21T17:14:38.697Z,27.90
2019-02-21T17:17:21.665Z,25.08
2019-02-21T17:20:06.848Z,25.20
2019-02-21T17:22:50.572Z,22.47
2019-02-21T17:25:33.295Z,21.40
2019-02-21T17:28:16.424Z,21.23
2019-02-21T17:30:59.825Z,25.60
2019-02-21T17:33:45.420Z,23.03
2019-02-21T17:36:29.243Z,18.53
2019-02-21T17:39:12.368Z,19.83
2019-02-21T17:41:57.836Z,22.93
2019-02-21T17:44:40.889Z,25.80
2019-02-21T17:47:24.683Z,20.77
2019-02-21T17:50:08.048Z,22.63
2019-02-21T17:52:50.649Z,20.43
2019-02-21T17:58:28.792Z,30.57
2019-02-21T18:01:13.650Z,21.77
2019-02-21T18:03:56.793Z,23.17
2019-02-21T18:06:39.813Z,21.97
2019-02-21T18:09:23.168Z,19.00
2019-02-21T18:12:07.841Z,22.83
2019-02-21T18:14:51.073Z,20.43
2019-02-21T18:17:36.441Z,20.07
2019-02-21T18:20:21.841Z,22.63
2019-02-21T18:23:05.072Z,22.00
2019-02-21T18:25:49.498Z,21.53
2019-02-21T18:28:33.162Z,16.20
2019-02-21T18:31:35.300Z,60.23
2019-02-21T18:34:06.760Z,129.60
2019-02-21T18:36:57.181Z,60.97
2019-02-21T18:39:40.256Z,30.77
2019-02-21T18:42:22.980Z,18.67
2019-02-21T18:45:07.249Z,17.40
2019-02-21T18:47:50.134Z,14.37
2019-02-21T18:50:38.135Z,18.70
2019-02-21T18:53:18.311Z,13.07
2019-02-21T18:56:01.362Z,15.53
2019-02-21T18:58:44.889Z,13.90
2019-02-21T19:01:28.479Z,22.43
2019-02-21T19:04:11.684Z,13.97
2019-02-21T19:06:55.537Z,29.13
2019-02-21T19:09:38.309Z,34.57
2019-02-21T19:12:22.252Z,21.80
2019-02-21T19:15:05.015Z,17.70
2019-02-21T19:17:48.706Z,17.73
2019-02-21T19:20:32.005Z,18.07
2019-02-21T19:23:15.195Z,17.40
2019-02-21T19:25:58.365Z,18.23
2019-02-21T19:28:42.223Z,18.53
2019-02-21T19:31:25.395Z,23.87
2019-02-21T19:34:08.590Z,19.77
2019-02-21T19:36:52.228Z,27.00
2019-02-21T19:39:35.260Z,21.03
2019-02-21T19:42:18.084Z,22.23
2019-02-21T19:45:01.474Z,24.12
2019-02-21T19:47:44.989Z,20.30
2019-02-21T19:50:28.017Z,23.93
2019-02-21T19:53:10.821Z,19.47
2019-02-21T19:55:53.504Z,19.57
2019-02-21T19:58:38.987Z,23.20
2019-02-21T20:01:21.599Z,22.33
2019-02-21T20:04:04.787Z,23.32
2019-02-21T20:06:47.819Z,20.50
2019-02-21T20:09:30.814Z,21.67
2019-02-21T20:12:16.308Z,22.20
2019-02-21T20:14:58.976Z,16.00
2019-02-21T20:17:43.804Z,16.63
2019-02-21T20:20:29.345Z,22.97
2019-02-21T20:23:12.896Z,28.50
2019-02-21T20:25:56.675Z,26.75
2019-02-21T20:28:39.711Z,22.50
2019-02-21T20:31:22.989Z,20.87
2019-02-21T20:34:05.744Z,25.80
2019-02-21T20:36:50.934Z,20.00
2019-02-21T20:39:33.151Z,25.43
2019-02-21T20:42:16.355Z,24.32
2019-02-21T20:44:59.547Z,25.27
2019-02-21T20:47:43.467Z,29.97
2019-02-21T20:50:26.495Z,19.40
2019-02-21T20:53:09.371Z,26.73
2019-02-21T20:55:52.033Z,30.20
2019-02-21T20:58:35.688Z,27.03
2019-02-21T21:01:20.568Z,24.17
2019-02-21T21:04:04.091Z,21.00
2019-02-21T21:06:50.873Z,24.50
2019-02-21T21:09:43.705Z,23.63
2019-02-21T21:12:27.117Z,28.83
2019-02-21T21:15:11.690Z,21.63
2019-02-21T21:17:43.446Z,21.20
2019-02-21T21:20:26.784Z,28.67
2019-02-21T21:23:12.094Z,31.93
2019-02-21T21:25:56.654Z,29.33
2019-02-21T21:28:41.621Z,21.47
2019-02-21T21:31:24.424Z,21.80
2019-02-21T21:34:07.054Z,26.67
2019-02-21T21:36:51.994Z,23.90
2019-02-21T21:39:37.454Z,20.63
2019-02-21T21:42:20.098Z,25.40
2019-02-21T21:45:05.560Z,22.50
2019-02-21T21:47:48.699Z,22.23
2019-02-21T21:50:32.354Z,21.77
2019-02-21T21:53:17.524Z,25.60
2019-02-21T21:56:00.485Z,22.37
2019-02-21T21:58:45.281Z,17.33
2019-02-21T22:01:28.866Z,24.50
2019-02-21T22:04:11.877Z,22.15
2019-02-21T22:06:54.906Z,15.53
2019-02-21T22:09:38.254Z,21.83
2019-02-21T22:12:21.467Z,18.50
2019-02-21T22:15:05.068Z,21.20
2019-02-21T22:17:49.714Z,20.17
2019-02-21T22:20:32.353Z,22.67
2019-02-21T22:23:15.171Z,20.97
2019-02-21T22:26:00.481Z,21.80
2019-02-21T22:28:43.862Z,22.47
2019-02-21T22:31:27.039Z,20.50
2019-02-21T22:34:10.534Z,19.97
2019-02-21T22:36:54.394Z,16.03
2019-02-21T22:39:41.068Z,15.30
2019-02-21T22:42:25.705Z,15.30
2019-02-21T22:45:11.216Z,17.40
2019-02-21T22:47:54.670Z,18.65
2019-02-21T22:50:38.262Z,17.63
2019-02-21T22:53:21.797Z,15.97
2019-02-21T22:56:07.119Z,16.20
2019-02-21T22:58:51.889Z,11.03
2019-02-21T23:01:35.286Z,13.07
2019-02-21T23:04:18.765Z,18.67
2019-02-21T23:07:01.461Z,16.73
2019-02-21T23:09:44.388Z,21.87
2019-02-21T23:12:28.853Z,17.93
2019-02-21T23:15:12.460Z,18.17
2019-02-21T23:17:57.266Z,19.53
2019-02-21T23:20:40.026Z,21.07
2019-02-21T23:23:23.296Z,18.10
2019-02-21T23:26:05.918Z,17.33
2019-02-21T23:28:49.277Z,23.07
2019-02-21T23:31:32.745Z,22.40
2019-02-21T23:34:36.677Z,21.03
2019-02-21T23:37:20.236Z,17.80
2019-02-21T23:40:03.806Z,18.93
2019-02-21T23:42:46.784Z,21.10
2019-02-21T23:45:32.010Z,18.63
2019-02-21T23:48:15.462Z,17.57
2019-02-21T23:50:59.881Z,20.97
2019-02-21T23:53:43.331Z,18.90
2019-02-21T23:56:28.022Z,21.10
2019-02-21T23:59:10.724Z,22.10
